Hill City, Kansas
Current Conditions -  °F | °C
As of 3:53 AM on Wednesday 22 Oct 2014 (Local Time) from KHLC Reporting Station
Clear Clear  
Wind Chill: 61°   Ceiling: Unl
Heat Index: 61°   Visibility: 10mi
Dew Point: 51°   Wind: 12mph
Humidity: 70%   Direction: 200°SSW
Pressure: 29.98"   Gusts: NA
Location:  39.36°N, 99.84°W
Report Text: KHLC 220853Z AUTO 20010KT 10SM CLR 16/11 A2998 RMK AO2 SLP132 T01610106 51000
Loading
Personal Weather Stations






























Interactive Weather Map
Tropical Storm Tracking
New forecast layout! Learn more

10-Day Weather Forecast

Advertisements
Track Severe Weather on mobile